sensor_id;sensor_type;location;lat;lon;timestamp;P1;durP1;ratioP1;P2;durP2;ratioP2
67828;SDS011;54626;45.436;10.942;2023-03-24T00:00:19;1.85;;;1.73;;
67828;SDS011;54626;45.436;10.942;2023-03-24T00:02:49;5.30;;;1.40;;
67828;SDS011;54626;45.436;10.942;2023-03-24T00:05:17;2.70;;;1.63;;
67828;SDS011;54626;45.436;10.942;2023-03-24T00:07:46;8.57;;;2.50;;
67828;SDS011;54626;45.436;10.942;2023-03-24T00:10:14;1.52;;;1.23;;
67828;SDS011;54626;45.436;10.942;2023-03-24T00:12:43;4.38;;;2.88;;
67828;SDS011;54626;45.436;10.942;2023-03-24T00:15:12;2.20;;;1.25;;
67828;SDS011;54626;45.436;10.942;2023-03-24T00:17:41;3.55;;;2.38;;
67828;SDS011;54626;45.436;10.942;2023-03-24T00:20:09;3.90;;;1.05;;
67828;SDS011;54626;45.436;10.942;2023-03-24T00:22:52;3.90;;;2.58;;
67828;SDS011;54626;45.436;10.942;2023-03-24T00:25:28;0.35;;;0.35;;
67828;SDS011;54626;45.436;10.942;2023-03-24T00:28:10;2.55;;;1.90;;
67828;SDS011;54626;45.436;10.942;2023-03-24T00:30:39;1.27;;;0.93;;
67828;SDS011;54626;45.436;10.942;2023-03-24T00:33:07;2.67;;;2.13;;
67828;SDS011;54626;45.436;10.942;2023-03-24T00:35:34;3.75;;;2.10;;
67828;SDS011;54626;45.436;10.942;2023-03-24T00:38:01;1.42;;;1.33;;
67828;SDS011;54626;45.436;10.942;2023-03-24T00:40:27;4.10;;;1.70;;
67828;SDS011;54626;45.436;10.942;2023-03-24T00:42:54;2.90;;;2.17;;
67828;SDS011;54626;45.436;10.942;2023-03-24T00:47:50;5.53;;;2.92;;
67828;SDS011;54626;45.436;10.942;2023-03-24T00:50:20;7.90;;;2.95;;
67828;SDS011;54626;45.436;10.942;2023-03-24T00:52:52;2.03;;;1.08;;
67828;SDS011;54626;45.436;10.942;2023-03-24T00:55:19;2.35;;;1.95;;
67828;SDS011;54626;45.436;10.942;2023-03-24T00:57:46;2.42;;;2.22;;
67828;SDS011;54626;45.436;10.942;2023-03-24T01:00:18;1.55;;;1.35;;
67828;SDS011;54626;45.436;10.942;2023-03-24T01:02:50;2.38;;;2.17;;
67828;SDS011;54626;45.436;10.942;2023-03-24T01:05:19;4.07;;;2.38;;
67828;SDS011;54626;45.436;10.942;2023-03-24T01:07:47;1.17;;;1.02;;
67828;SDS011;54626;45.436;10.942;2023-03-24T01:10:18;2.28;;;1.42;;
67828;SDS011;54626;45.436;10.942;2023-03-24T01:12:47;3.85;;;1.08;;
67828;SDS011;54626;45.436;10.942;2023-03-24T01:15:15;1.65;;;1.50;;
67828;SDS011;54626;45.436;10.942;2023-03-24T01:17:43;4.80;;;2.88;;
67828;SDS011;54626;45.436;10.942;2023-03-24T01:20:12;3.70;;;1.50;;
67828;SDS011;54626;45.436;10.942;2023-03-24T01:22:39;4.80;;;2.63;;
67828;SDS011;54626;45.436;10.942;2023-03-24T01:25:13;4.10;;;1.17;;
67828;SDS011;54626;45.436;10.942;2023-03-24T01:27:42;1.73;;;1.30;;
67828;SDS011;54626;45.436;10.942;2023-03-24T01:30:11;2.88;;;1.90;;
67828;SDS011;54626;45.436;10.942;2023-03-24T01:32:39;3.72;;;1.98;;
67828;SDS011;54626;45.436;10.942;2023-03-24T01:35:06;4.05;;;1.48;;
67828;SDS011;54626;45.436;10.942;2023-03-24T01:37:33;2.13;;;0.77;;
67828;SDS011;54626;45.436;10.942;2023-03-24T01:40:00;4.30;;;1.63;;
67828;SDS011;54626;45.436;10.942;2023-03-24T01:42:28;1.30;;;1.02;;
67828;SDS011;54626;45.436;10.942;2023-03-24T01:44:58;2.13;;;0.98;;
67828;SDS011;54626;45.436;10.942;2023-03-24T01:47:44;2.78;;;1.85;;
67828;SDS011;54626;45.436;10.942;2023-03-24T01:50:12;3.80;;;2.35;;
67828;SDS011;54626;45.436;10.942;2023-03-24T01:52:39;1.27;;;1.13;;
67828;SDS011;54626;45.436;10.942;2023-03-24T01:55:12;6.82;;;2.20;;
67828;SDS011;54626;45.436;10.942;2023-03-24T01:57:45;1.90;;;1.65;;
67828;SDS011;54626;45.436;10.942;2023-03-24T02:00:16;4.30;;;1.35;;
67828;SDS011;54626;45.436;10.942;2023-03-24T02:02:53;2.58;;;2.38;;
67828;SDS011;54626;45.436;10.942;2023-03-24T02:05:25;5.10;;;1.25;;
67828;SDS011;54626;45.436;10.942;2023-03-24T02:08:00;6.55;;;1.73;;
67828;SDS011;54626;45.436;10.942;2023-03-24T02:10:33;2.78;;;1.45;;
67828;SDS011;54626;45.436;10.942;2023-03-24T02:13:01;3.67;;;2.22;;
67828;SDS011;54626;45.436;10.942;2023-03-24T02:15:30;3.40;;;2.25;;
67828;SDS011;54626;45.436;10.942;2023-03-24T02:26:19;3.50;;;1.17;;
67828;SDS011;54626;45.436;10.942;2023-03-24T02:29:28;1.85;;;1.65;;
67828;SDS011;54626;45.436;10.942;2023-03-24T02:40:39;4.32;;;3.03;;
67828;SDS011;54626;45.436;10.942;2023-03-24T02:43:23;1.35;;;1.17;;
67828;SDS011;54626;45.436;10.942;2023-03-24T02:48:51;2.28;;;1.70;;
67828;SDS011;54626;45.436;10.942;2023-03-24T02:51:25;2.85;;;2.05;;
67828;SDS011;54626;45.436;10.942;2023-03-24T02:56:36;1.80;;;1.63;;
67828;SDS011;54626;45.436;10.942;2023-03-24T02:59:04;3.50;;;1.65;;
67828;SDS011;54626;45.436;10.942;2023-03-24T03:01:40;0.55;;;0.55;;
67828;SDS011;54626;45.436;10.942;2023-03-24T03:04:21;3.97;;;1.48;;
67828;SDS011;54626;45.436;10.942;2023-03-24T03:06:55;1.67;;;0.95;;
67828;SDS011;54626;45.436;10.942;2023-03-24T03:09:26;1.83;;;1.48;;
67828;SDS011;54626;45.436;10.942;2023-03-24T03:11:55;3.25;;;1.70;;
67828;SDS011;54626;45.436;10.942;2023-03-24T03:14:30;1.58;;;1.48;;
67828;SDS011;54626;45.436;10.942;2023-03-24T03:17:05;1.77;;;1.67;;
67828;SDS011;54626;45.436;10.942;2023-03-24T03:19:40;1.83;;;1.73;;
67828;SDS011;54626;45.436;10.942;2023-03-24T03:22:16;1.75;;;0.88;;
67828;SDS011;54626;45.436;10.942;2023-03-24T03:24:48;5.35;;;0.80;;
67828;SDS011;54626;45.436;10.942;2023-03-24T03:27:19;5.03;;;2.05;;
67828;SDS011;54626;45.436;10.942;2023-03-24T03:29:53;2.80;;;1.33;;
67828;SDS011;54626;45.436;10.942;2023-03-24T03:32:26;2.30;;;1.70;;
67828;SDS011;54626;45.436;10.942;2023-03-24T03:40:19;3.95;;;2.83;;
67828;SDS011;54626;45.436;10.942;2023-03-24T03:42:50;1.33;;;1.20;;
67828;SDS011;54626;45.436;10.942;2023-03-24T03:45:17;2.38;;;1.80;;
67828;SDS011;54626;45.436;10.942;2023-03-24T03:47:44;1.65;;;1.55;;
67828;SDS011;54626;45.436;10.942;2023-03-24T03:50:11;4.18;;;2.88;;
67828;SDS011;54626;45.436;10.942;2023-03-24T03:52:38;2.45;;;1.73;;
67828;SDS011;54626;45.436;10.942;2023-03-24T03:55:09;3.88;;;2.15;;
67828;SDS011;54626;45.436;10.942;2023-03-24T03:57:37;3.25;;;2.05;;
67828;SDS011;54626;45.436;10.942;2023-03-24T04:00:05;3.22;;;2.63;;
67828;SDS011;54626;45.436;10.942;2023-03-24T04:05:19;8.55;;;2.38;;
67828;SDS011;54626;45.436;10.942;2023-03-24T04:10:42;3.92;;;1.33;;
67828;SDS011;54626;45.436;10.942;2023-03-24T04:13:27;1.67;;;1.58;;
67828;SDS011;54626;45.436;10.942;2023-03-24T04:16:16;2.92;;;2.50;;
67828;SDS011;54626;45.436;10.942;2023-03-24T04:24:44;8.30;;;2.78;;
67828;SDS011;54626;45.436;10.942;2023-03-24T04:32:34;2.08;;;1.83;;
67828;SDS011;54626;45.436;10.942;2023-03-24T04:35:12;1.23;;;1.13;;
67828;SDS011;54626;45.436;10.942;2023-03-24T04:38:08;3.33;;;1.45;;
67828;SDS011;54626;45.436;10.942;2023-03-24T04:40:39;12.32;;;2.13;;
67828;SDS011;54626;45.436;10.942;2023-03-24T04:43:09;0.95;;;0.95;;
67828;SDS011;54626;45.436;10.942;2023-03-24T04:45:40;0.70;;;0.70;;
67828;SDS011;54626;45.436;10.942;2023-03-24T04:48:06;2.30;;;2.10;;
67828;SDS011;54626;45.436;10.942;2023-03-24T04:50:40;1.60;;;1.10;;
67828;SDS011;54626;45.436;10.942;2023-03-24T04:53:08;2.53;;;2.33;;
67828;SDS011;54626;45.436;10.942;2023-03-24T04:58:05;2.28;;;1.42;;
67828;SDS011;54626;45.436;10.942;2023-03-24T05:02:58;3.85;;;1.63;;
67828;SDS011;54626;45.436;10.942;2023-03-24T05:05:25;3.17;;;0.93;;
67828;SDS011;54626;45.436;10.942;2023-03-24T05:10:18;2.05;;;1.27;;
67828;SDS011;54626;45.436;10.942;2023-03-24T05:12:47;3.40;;;1.95;;
67828;SDS011;54626;45.436;10.942;2023-03-24T05:15:14;7.80;;;1.33;;
67828;SDS011;54626;45.436;10.942;2023-03-24T05:17:41;2.13;;;1.98;;
67828;SDS011;54626;45.436;10.942;2023-03-24T05:20:08;0.75;;;0.73;;
67828;SDS011;54626;45.436;10.942;2023-03-24T05:22:37;2.35;;;2.00;;
67828;SDS011;54626;45.436;10.942;2023-03-24T05:25:04;8.35;;;2.85;;
67828;SDS011;54626;45.436;10.942;2023-03-24T05:27:32;1.20;;;1.15;;
67828;SDS011;54626;45.436;10.942;2023-03-24T05:29:58;2.40;;;1.77;;
67828;SDS011;54626;45.436;10.942;2023-03-24T05:32:26;2.42;;;1.88;;
67828;SDS011;54626;45.436;10.942;2023-03-24T05:34:53;3.83;;;2.03;;
67828;SDS011;54626;45.436;10.942;2023-03-24T05:37:19;3.03;;;1.17;;
67828;SDS011;54626;45.436;10.942;2023-03-24T05:39:46;3.88;;;1.80;;
67828;SDS011;54626;45.436;10.942;2023-03-24T05:44:40;3.95;;;1.85;;
67828;SDS011;54626;45.436;10.942;2023-03-24T05:47:09;4.57;;;2.55;;
67828;SDS011;54626;45.436;10.942;2023-03-24T05:49:36;2.42;;;1.67;;
67828;SDS011;54626;45.436;10.942;2023-03-24T05:52:06;5.65;;;1.55;;
67828;SDS011;54626;45.436;10.942;2023-03-24T05:54:34;2.70;;;1.02;;
67828;SDS011;54626;45.436;10.942;2023-03-24T05:57:01;5.63;;;1.98;;
67828;SDS011;54626;45.436;10.942;2023-03-24T05:59:28;1.45;;;1.35;;
67828;SDS011;54626;45.436;10.942;2023-03-24T06:01:56;1.90;;;1.75;;
67828;SDS011;54626;45.436;10.942;2023-03-24T06:04:24;1.90;;;1.48;;
67828;SDS011;54626;45.436;10.942;2023-03-24T06:06:55;4.80;;;2.30;;
67828;SDS011;54626;45.436;10.942;2023-03-24T06:09:27;5.88;;;2.90;;
67828;SDS011;54626;45.436;10.942;2023-03-24T06:11:58;3.10;;;2.03;;
67828;SDS011;54626;45.436;10.942;2023-03-24T06:14:25;2.92;;;2.22;;
67828;SDS011;54626;45.436;10.942;2023-03-24T06:16:51;5.45;;;2.50;;
67828;SDS011;54626;45.436;10.942;2023-03-24T06:19:18;7.47;;;4.53;;
67828;SDS011;54626;45.436;10.942;2023-03-24T06:21:47;4.55;;;2.70;;
67828;SDS011;54626;45.436;10.942;2023-03-24T06:24:16;4.15;;;1.85;;
67828;SDS011;54626;45.436;10.942;2023-03-24T06:26:43;3.00;;;1.58;;
67828;SDS011;54626;45.436;10.942;2023-03-24T06:29:15;4.28;;;2.80;;
67828;SDS011;54626;45.436;10.942;2023-03-24T06:31:44;9.48;;;3.00;;
67828;SDS011;54626;45.436;10.942;2023-03-24T06:34:11;5.75;;;2.65;;
67828;SDS011;54626;45.436;10.942;2023-03-24T06:36:37;4.07;;;2.80;;
67828;SDS011;54626;45.436;10.942;2023-03-24T06:39:05;5.32;;;2.70;;
67828;SDS011;54626;45.436;10.942;2023-03-24T06:41:33;5.45;;;4.13;;
67828;SDS011;54626;45.436;10.942;2023-03-24T06:43:59;7.20;;;1.77;;
67828;SDS011;54626;45.436;10.942;2023-03-24T06:46:26;1.92;;;1.77;;
67828;SDS011;54626;45.436;10.942;2023-03-24T06:48:54;11.98;;;4.38;;
67828;SDS011;54626;45.436;10.942;2023-03-24T06:51:29;4.20;;;2.60;;
67828;SDS011;54626;45.436;10.942;2023-03-24T06:53:58;3.13;;;2.03;;
67828;SDS011;54626;45.436;10.942;2023-03-24T06:56:25;9.90;;;5.28;;
67828;SDS011;54626;45.436;10.942;2023-03-24T06:58:52;4.80;;;2.63;;
67828;SDS011;54626;45.436;10.942;2023-03-24T07:01:21;3.28;;;2.15;;
67828;SDS011;54626;45.436;10.942;2023-03-24T07:03:48;8.77;;;2.83;;
67828;SDS011;54626;45.436;10.942;2023-03-24T07:06:15;5.57;;;2.95;;
67828;SDS011;54626;45.436;10.942;2023-03-24T07:08:43;8.00;;;3.20;;
67828;SDS011;54626;45.436;10.942;2023-03-24T07:11:11;11.75;;;6.60;;
67828;SDS011;54626;45.436;10.942;2023-03-24T07:13:37;4.28;;;3.60;;
67828;SDS011;54626;45.436;10.942;2023-03-24T07:16:03;4.63;;;2.88;;
67828;SDS011;54626;45.436;10.942;2023-03-24T07:18:31;4.85;;;3.13;;
67828;SDS011;54626;45.436;10.942;2023-03-24T07:20:57;6.60;;;4.72;;
67828;SDS011;54626;45.436;10.942;2023-03-24T07:23:24;6.80;;;3.55;;
67828;SDS011;54626;45.436;10.942;2023-03-24T07:25:52;11.32;;;5.65;;
67828;SDS011;54626;45.436;10.942;2023-03-24T07:28:19;8.50;;;3.42;;
67828;SDS011;54626;45.436;10.942;2023-03-24T07:30:46;14.90;;;6.45;;
67828;SDS011;54626;45.436;10.942;2023-03-24T07:33:12;13.02;;;4.72;;
67828;SDS011;54626;45.436;10.942;2023-03-24T07:35:39;7.22;;;4.85;;
67828;SDS011;54626;45.436;10.942;2023-03-24T07:38:06;13.73;;;5.57;;
67828;SDS011;54626;45.436;10.942;2023-03-24T07:40:32;6.45;;;4.20;;
67828;SDS011;54626;45.436;10.942;2023-03-24T07:43:03;5.53;;;3.60;;
67828;SDS011;54626;45.436;10.942;2023-03-24T07:45:34;13.63;;;6.95;;
67828;SDS011;54626;45.436;10.942;2023-03-24T07:48:01;15.57;;;7.78;;
67828;SDS011;54626;45.436;10.942;2023-03-24T07:50:28;8.98;;;3.88;;
67828;SDS011;54626;45.436;10.942;2023-03-24T07:52:56;10.70;;;6.03;;
67828;SDS011;54626;45.436;10.942;2023-03-24T07:55:25;9.07;;;5.57;;
67828;SDS011;54626;45.436;10.942;2023-03-24T07:57:52;7.00;;;3.83;;
67828;SDS011;54626;45.436;10.942;2023-03-24T08:00:18;7.63;;;3.88;;
67828;SDS011;54626;45.436;10.942;2023-03-24T08:02:49;10.73;;;4.88;;
67828;SDS011;54626;45.436;10.942;2023-03-24T08:05:18;16.00;;;6.60;;
67828;SDS011;54626;45.436;10.942;2023-03-24T08:07:47;11.77;;;5.20;;
67828;SDS011;54626;45.436;10.942;2023-03-24T08:10:20;11.45;;;5.95;;
67828;SDS011;54626;45.436;10.942;2023-03-24T08:12:48;11.02;;;5.80;;
67828;SDS011;54626;45.436;10.942;2023-03-24T08:15:15;10.52;;;4.47;;
67828;SDS011;54626;45.436;10.942;2023-03-24T08:17:42;11.40;;;6.53;;
67828;SDS011;54626;45.436;10.942;2023-03-24T08:20:10;12.63;;;6.25;;
67828;SDS011;54626;45.436;10.942;2023-03-24T08:22:41;13.85;;;6.40;;
67828;SDS011;54626;45.436;10.942;2023-03-24T08:25:09;16.92;;;6.97;;
67828;SDS011;54626;45.436;10.942;2023-03-24T08:27:37;10.00;;;5.05;;
67828;SDS011;54626;45.436;10.942;2023-03-24T08:30:05;10.90;;;5.82;;
67828;SDS011;54626;45.436;10.942;2023-03-24T08:32:36;18.23;;;9.32;;
67828;SDS011;54626;45.436;10.942;2023-03-24T08:35:03;14.05;;;6.55;;
67828;SDS011;54626;45.436;10.942;2023-03-24T08:37:31;16.05;;;6.50;;
67828;SDS011;54626;45.436;10.942;2023-03-24T08:39:57;14.73;;;6.45;;
67828;SDS011;54626;45.436;10.942;2023-03-24T08:42:30;7.60;;;4.78;;
67828;SDS011;54626;45.436;10.942;2023-03-24T08:44:57;14.55;;;6.90;;
67828;SDS011;54626;45.436;10.942;2023-03-24T08:47:23;12.25;;;5.80;;
67828;SDS011;54626;45.436;10.942;2023-03-24T08:49:53;10.02;;;6.78;;
67828;SDS011;54626;45.436;10.942;2023-03-24T08:54:50;17.05;;;7.40;;
67828;SDS011;54626;45.436;10.942;2023-03-24T08:57:17;14.65;;;5.80;;
67828;SDS011;54626;45.436;10.942;2023-03-24T08:59:43;14.38;;;6.13;;
67828;SDS011;54626;45.436;10.942;2023-03-24T09:02:12;12.55;;;6.45;;
67828;SDS011;54626;45.436;10.942;2023-03-24T09:04:39;11.30;;;6.38;;
67828;SDS011;54626;45.436;10.942;2023-03-24T09:07:08;9.00;;;6.20;;
67828;SDS011;54626;45.436;10.942;2023-03-24T09:09:35;14.18;;;5.95;;
67828;SDS011;54626;45.436;10.942;2023-03-24T09:12:02;12.90;;;5.47;;
67828;SDS011;54626;45.436;10.942;2023-03-24T09:14:28;16.45;;;7.50;;
67828;SDS011;54626;45.436;10.942;2023-03-24T09:16:55;11.60;;;5.65;;
67828;SDS011;54626;45.436;10.942;2023-03-24T09:19:21;12.98;;;5.57;;
67828;SDS011;54626;45.436;10.942;2023-03-24T09:21:48;10.50;;;6.75;;
67828;SDS011;54626;45.436;10.942;2023-03-24T09:24:15;10.13;;;4.57;;
67828;SDS011;54626;45.436;10.942;2023-03-24T09:26:42;9.63;;;5.07;;
67828;SDS011;54626;45.436;10.942;2023-03-24T09:29:09;6.32;;;3.80;;
67828;SDS011;54626;45.436;10.942;2023-03-24T09:31:36;8.90;;;5.30;;
67828;SDS011;54626;45.436;10.942;2023-03-24T09:34:02;7.15;;;3.38;;
67828;SDS011;54626;45.436;10.942;2023-03-24T09:36:29;6.03;;;3.15;;
67828;SDS011;54626;45.436;10.942;2023-03-24T09:38:56;3.75;;;2.10;;
67828;SDS011;54626;45.436;10.942;2023-03-24T09:41:26;3.70;;;2.03;;
67828;SDS011;54626;45.436;10.942;2023-03-24T09:43:59;4.03;;;2.25;;
67828;SDS011;54626;45.436;10.942;2023-03-24T09:46:38;2.80;;;1.17;;
67828;SDS011;54626;45.436;10.942;2023-03-24T09:51:39;2.35;;;0.93;;
67828;SDS011;54626;45.436;10.942;2023-03-24T09:57:21;3.30;;;1.98;;
67828;SDS011;54626;45.436;10.942;2023-03-24T09:59:53;2.55;;;1.10;;
67828;SDS011;54626;45.436;10.942;2023-03-24T10:02:20;3.67;;;1.05;;
67828;SDS011;54626;45.436;10.942;2023-03-24T10:04:47;7.65;;;1.38;;
67828;SDS011;54626;45.436;10.942;2023-03-24T10:07:20;2.97;;;1.38;;
67828;SDS011;54626;45.436;10.942;2023-03-24T10:10:21;1.60;;;0.88;;
67828;SDS011;54626;45.436;10.942;2023-03-24T10:13:05;0.88;;;0.63;;
67828;SDS011;54626;45.436;10.942;2023-03-24T10:15:42;2.22;;;1.20;;
67828;SDS011;54626;45.436;10.942;2023-03-24T10:18:39;1.40;;;0.95;;
67828;SDS011;54626;45.436;10.942;2023-03-24T10:21:36;1.15;;;0.60;;
67828;SDS011;54626;45.436;10.942;2023-03-24T10:24:18;2.05;;;1.15;;
67828;SDS011;54626;45.436;10.942;2023-03-24T10:26:53;1.50;;;0.85;;
67828;SDS011;54626;45.436;10.942;2023-03-24T10:31:59;0.55;;;0.55;;
67828;SDS011;54626;45.436;10.942;2023-03-24T10:34:30;3.13;;;1.00;;
67828;SDS011;54626;45.436;10.942;2023-03-24T10:37:00;0.20;;;0.20;;
67828;SDS011;54626;45.436;10.942;2023-03-24T10:39:29;0.82;;;0.70;;
67828;SDS011;54626;45.436;10.942;2023-03-24T10:42:13;0.90;;;0.73;;
67828;SDS011;54626;45.436;10.942;2023-03-24T10:44:45;0.52;;;0.52;;
67828;SDS011;54626;45.436;10.942;2023-03-24T10:47:13;0.40;;;0.40;;
67828;SDS011;54626;45.436;10.942;2023-03-24T10:49:54;1.88;;;0.95;;
67828;SDS011;54626;45.436;10.942;2023-03-24T10:52:23;0.98;;;0.77;;
67828;SDS011;54626;45.436;10.942;2023-03-24T10:54:57;0.98;;;0.38;;
67828;SDS011;54626;45.436;10.942;2023-03-24T10:57:31;0.68;;;0.43;;
67828;SDS011;54626;45.436;10.942;2023-03-24T11:00:04;2.03;;;0.50;;
67828;SDS011;54626;45.436;10.942;2023-03-24T11:02:42;0.43;;;0.28;;
67828;SDS011;54626;45.436;10.942;2023-03-24T11:05:19;3.92;;;0.60;;
67828;SDS011;54626;45.436;10.942;2023-03-24T11:07:54;0.73;;;0.65;;
67828;SDS011;54626;45.436;10.942;2023-03-24T11:10:26;0.65;;;0.40;;
67828;SDS011;54626;45.436;10.942;2023-03-24T11:15:23;0.82;;;0.80;;
67828;SDS011;54626;45.436;10.942;2023-03-24T11:17:59;1.38;;;0.57;;
67828;SDS011;54626;45.436;10.942;2023-03-24T11:20:34;2.90;;;0.50;;
67828;SDS011;54626;45.436;10.942;2023-03-24T11:25:38;1.77;;;1.17;;
67828;SDS011;54626;45.436;10.942;2023-03-24T11:28:13;0.82;;;0.45;;
67828;SDS011;54626;45.436;10.942;2023-03-24T11:30:46;1.73;;;0.77;;
67828;SDS011;54626;45.436;10.942;2023-03-24T11:33:25;0.43;;;0.40;;
67828;SDS011;54626;45.436;10.942;2023-03-24T11:36:04;0.75;;;0.65;;
67828;SDS011;54626;45.436;10.942;2023-03-24T11:38:58;9.43;;;1.02;;
67828;SDS011;54626;45.436;10.942;2023-03-24T11:41:26;1.00;;;0.70;;
67828;SDS011;54626;45.436;10.942;2023-03-24T11:44:07;1.85;;;0.88;;
67828;SDS011;54626;45.436;10.942;2023-03-24T11:46:45;2.42;;;1.20;;
67828;SDS011;54626;45.436;10.942;2023-03-24T11:49:17;0.82;;;0.40;;
67828;SDS011;54626;45.436;10.942;2023-03-24T11:51:46;1.00;;;0.50;;
67828;SDS011;54626;45.436;10.942;2023-03-24T11:54:17;2.05;;;0.70;;
67828;SDS011;54626;45.436;10.942;2023-03-24T11:56:49;3.67;;;0.98;;
67828;SDS011;54626;45.436;10.942;2023-03-24T12:13:36;0.93;;;0.85;;
67828;SDS011;54626;45.436;10.942;2023-03-24T12:16:20;1.45;;;1.00;;
67828;SDS011;54626;45.436;10.942;2023-03-24T12:19:12;0.22;;;0.22;;
67828;SDS011;54626;45.436;10.942;2023-03-24T12:21:59;1.95;;;1.00;;
67828;SDS011;54626;45.436;10.942;2023-03-24T12:24:39;1.40;;;1.25;;
67828;SDS011;54626;45.436;10.942;2023-03-24T12:27:30;4.60;;;0.85;;
67828;SDS011;54626;45.436;10.942;2023-03-24T12:30:01;0.75;;;0.73;;
67828;SDS011;54626;45.436;10.942;2023-03-24T12:35:29;1.98;;;0.95;;
67828;SDS011;54626;45.436;10.942;2023-03-24T12:43:49;1.25;;;1.08;;
67828;SDS011;54626;45.436;10.942;2023-03-24T12:54:34;1.27;;;0.82;;
67828;SDS011;54626;45.436;10.942;2023-03-24T12:57:08;0.85;;;0.82;;
67828;SDS011;54626;45.436;10.942;2023-03-24T12:59:47;1.50;;;0.80;;
67828;SDS011;54626;45.436;10.942;2023-03-24T13:02:22;1.60;;;1.25;;
67828;SDS011;54626;45.436;10.942;2023-03-24T13:04:55;1.00;;;0.85;;
67828;SDS011;54626;45.436;10.942;2023-03-24T13:07:31;1.30;;;1.00;;
67828;SDS011;54626;45.436;10.942;2023-03-24T13:18:27;1.45;;;0.90;;
67828;SDS011;54626;45.436;10.942;2023-03-24T13:21:19;3.63;;;2.92;;
67828;SDS011;54626;45.436;10.942;2023-03-24T13:36:49;1.10;;;0.90;;
67828;SDS011;54626;45.436;10.942;2023-03-24T13:41:49;2.42;;;0.85;;
67828;SDS011;54626;45.436;10.942;2023-03-24T13:49:41;2.03;;;1.50;;
67828;SDS011;54626;45.436;10.942;2023-03-24T13:52:25;3.67;;;1.50;;
67828;SDS011;54626;45.436;10.942;2023-03-24T13:54:57;2.03;;;1.23;;
67828;SDS011;54626;45.436;10.942;2023-03-24T13:57:26;2.45;;;1.52;;
67828;SDS011;54626;45.436;10.942;2023-03-24T13:59:58;1.65;;;1.27;;
67828;SDS011;54626;45.436;10.942;2023-03-24T14:02:45;2.95;;;1.05;;
67828;SDS011;54626;45.436;10.942;2023-03-24T14:26:00;1.33;;;1.20;;
67828;SDS011;54626;45.436;10.942;2023-03-24T14:28:29;2.28;;;1.15;;
67828;SDS011;54626;45.436;10.942;2023-03-24T14:33:56;2.78;;;1.85;;
67828;SDS011;54626;45.436;10.942;2023-03-24T14:36:35;1.33;;;1.05;;
67828;SDS011;54626;45.436;10.942;2023-03-24T14:41:58;2.97;;;1.02;;
67828;SDS011;54626;45.436;10.942;2023-03-24T14:44:50;3.20;;;1.80;;
67828;SDS011;54626;45.436;10.942;2023-03-24T14:47:22;3.38;;;1.35;;
67828;SDS011;54626;45.436;10.942;2023-03-24T14:49:55;2.38;;;1.10;;
67828;SDS011;54626;45.436;10.942;2023-03-24T14:55:13;2.78;;;1.38;;
67828;SDS011;54626;45.436;10.942;2023-03-24T14:57:46;3.50;;;1.13;;
67828;SDS011;54626;45.436;10.942;2023-03-24T15:02:51;2.83;;;1.30;;
67828;SDS011;54626;45.436;10.942;2023-03-24T15:10:52;1.35;;;0.70;;
67828;SDS011;54626;45.436;10.942;2023-03-24T15:45:20;2.40;;;1.58;;
67828;SDS011;54626;45.436;10.942;2023-03-24T15:47:50;2.20;;;1.20;;
67828;SDS011;54626;45.436;10.942;2023-03-24T15:50:31;1.83;;;1.17;;
67828;SDS011;54626;45.436;10.942;2023-03-24T15:53:04;2.83;;;1.65;;
67828;SDS011;54626;45.436;10.942;2023-03-24T15:55:47;1.65;;;1.20;;
67828;SDS011;54626;45.436;10.942;2023-03-24T15:58:28;6.03;;;1.27;;
67828;SDS011;54626;45.436;10.942;2023-03-24T16:00:58;1.13;;;0.85;;
67828;SDS011;54626;45.436;10.942;2023-03-24T16:03:28;3.63;;;1.17;;
67828;SDS011;54626;45.436;10.942;2023-03-24T16:05:56;5.28;;;1.30;;
67828;SDS011;54626;45.436;10.942;2023-03-24T16:11:05;1.63;;;1.15;;
67828;SDS011;54626;45.436;10.942;2023-03-24T16:13:37;5.30;;;1.70;;
67828;SDS011;54626;45.436;10.942;2023-03-24T16:18:42;2.08;;;1.17;;
67828;SDS011;54626;45.436;10.942;2023-03-24T16:21:15;3.10;;;1.13;;
67828;SDS011;54626;45.436;10.942;2023-03-24T16:23:43;3.70;;;1.17;;
67828;SDS011;54626;45.436;10.942;2023-03-24T16:26:14;1.20;;;0.88;;
67828;SDS011;54626;45.436;10.942;2023-03-24T16:28:42;2.10;;;1.40;;
67828;SDS011;54626;45.436;10.942;2023-03-24T16:31:28;1.95;;;1.27;;
67828;SDS011;54626;45.436;10.942;2023-03-24T16:33:58;1.05;;;0.90;;
67828;SDS011;54626;45.436;10.942;2023-03-24T16:36:25;1.25;;;0.90;;
67828;SDS011;54626;45.436;10.942;2023-03-24T16:38:55;1.40;;;0.73;;
67828;SDS011;54626;45.436;10.942;2023-03-24T16:41:32;0.95;;;0.75;;
67828;SDS011;54626;45.436;10.942;2023-03-24T16:43:59;2.15;;;0.80;;
67828;SDS011;54626;45.436;10.942;2023-03-24T16:46:31;1.60;;;0.98;;
67828;SDS011;54626;45.436;10.942;2023-03-24T16:49:00;1.58;;;1.00;;
67828;SDS011;54626;45.436;10.942;2023-03-24T16:51:27;2.97;;;1.55;;
67828;SDS011;54626;45.436;10.942;2023-03-24T16:53:55;3.97;;;0.90;;
67828;SDS011;54626;45.436;10.942;2023-03-24T16:56:22;1.08;;;0.60;;
67828;SDS011;54626;45.436;10.942;2023-03-24T16:58:49;1.08;;;0.73;;
67828;SDS011;54626;45.436;10.942;2023-03-24T17:03:56;3.20;;;0.98;;
67828;SDS011;54626;45.436;10.942;2023-03-24T17:06:24;0.95;;;0.80;;
67828;SDS011;54626;45.436;10.942;2023-03-24T17:08:53;0.40;;;0.40;;
67828;SDS011;54626;45.436;10.942;2023-03-24T17:11:29;8.63;;;2.05;;
67828;SDS011;54626;45.436;10.942;2023-03-24T17:14:00;9.45;;;1.38;;
67828;SDS011;54626;45.436;10.942;2023-03-24T17:16:33;0.88;;;0.75;;
67828;SDS011;54626;45.436;10.942;2023-03-24T17:19:02;6.10;;;1.08;;
67828;SDS011;54626;45.436;10.942;2023-03-24T17:21:31;2.35;;;1.23;;
67828;SDS011;54626;45.436;10.942;2023-03-24T17:24:05;2.22;;;1.42;;
67828;SDS011;54626;45.436;10.942;2023-03-24T17:26:37;0.93;;;0.68;;
67828;SDS011;54626;45.436;10.942;2023-03-24T17:29:05;1.70;;;0.98;;
67828;SDS011;54626;45.436;10.942;2023-03-24T17:31:32;1.92;;;0.90;;
67828;SDS011;54626;45.436;10.942;2023-03-24T17:33:59;1.70;;;0.50;;
67828;SDS011;54626;45.436;10.942;2023-03-24T17:36:45;0.95;;;0.70;;
67828;SDS011;54626;45.436;10.942;2023-03-24T17:39:15;1.13;;;0.57;;
67828;SDS011;54626;45.436;10.942;2023-03-24T17:41:42;0.95;;;0.90;;
67828;SDS011;54626;45.436;10.942;2023-03-24T17:44:11;1.25;;;1.08;;
67828;SDS011;54626;45.436;10.942;2023-03-24T17:46:39;0.90;;;0.68;;
67828;SDS011;54626;45.436;10.942;2023-03-24T17:49:05;0.65;;;0.40;;
67828;SDS011;54626;45.436;10.942;2023-03-24T17:51:32;3.75;;;0.50;;
67828;SDS011;54626;45.436;10.942;2023-03-24T17:53:59;0.63;;;0.60;;
67828;SDS011;54626;45.436;10.942;2023-03-24T17:56:26;0.80;;;0.60;;
67828;SDS011;54626;45.436;10.942;2023-03-24T17:58:53;1.95;;;0.77;;
67828;SDS011;54626;45.436;10.942;2023-03-24T18:01:24;0.77;;;0.57;;
67828;SDS011;54626;45.436;10.942;2023-03-24T18:03:54;0.80;;;0.80;;
67828;SDS011;54626;45.436;10.942;2023-03-24T18:06:21;0.90;;;0.85;;
67828;SDS011;54626;45.436;10.942;2023-03-24T18:08:51;2.60;;;1.08;;
67828;SDS011;54626;45.436;10.942;2023-03-24T18:11:18;2.10;;;0.90;;
67828;SDS011;54626;45.436;10.942;2023-03-24T18:13:45;4.20;;;2.08;;
67828;SDS011;54626;45.436;10.942;2023-03-24T18:16:11;1.08;;;0.85;;
67828;SDS011;54626;45.436;10.942;2023-03-24T18:18:47;0.60;;;0.60;;
67828;SDS011;54626;45.436;10.942;2023-03-24T18:21:15;1.23;;;0.77;;
67828;SDS011;54626;45.436;10.942;2023-03-24T18:23:42;0.75;;;0.73;;
67828;SDS011;54626;45.436;10.942;2023-03-24T18:26:09;0.60;;;0.57;;